Strona główna
METAR-TAF:

METAR-TAF

Lotnisko :

Port lotniczy Linz

Linz, Austria

Szerokość geograficzna: 48-14N, Długość geograficzna: 014-11E, wysokość: 298 m

Aktualna obserwacja pogody

Raport powstał 10 minut temu, godzina 09:50 UTC
Wiatr 8 kt od zachód, zmienny między zachodnio-południowy zachód i północno-północny zachód
Temperatura 26°C
Wilgotność 48%
Ciśnienie 1020 hPa
Widzialność 10 km lub więcej
Mało chmury na wysokości 6000 ft

METAR: LOWL 180950Z 28008KT 240V330 9999 FEW060 26/14 Q1020 NOSIG

czas: 12:00 (10:00 UTC)

Prognoza

Raport powstał 4 godziny i 45 minut temu, godzina 05:15 UTC
Prognoza ważna od 18 godzina 06 UTC do 19 godzina 06 UTC
Wiatr 6 kt od zachodnio-północny zachód
Widzialność 10 km lub więcej
Mało chmury na wysokości 6000 ft
Stopniowe zmiany
od 18 godzina 14 UTC do 18 godzina 16 UTC
Wiatr 2 kt z kierunków zmiennych
Widzialność 10 km lub więcej
Brak chmur poniżej 1500 m i brak chmur cumulonimbus

TAF: LOWL 180515Z 1806/1906 29006KT 9999 FEW060 TX30/1815Z TN17/1904Z BECMG 1814/1816 VRB02KT CAVOK

Obserwacja i prognoza pogody dla ponad 4000 lotnisk (raport METAR i TAF).

Dostępne stacje oznaczono żółtymi i czerwonymi punktami na mapie.

Najedź kursorem aby zobaczyć nazwę stacji.

Kliknij aby zobaczyć obserwacje i prognozy pogody.

Aby zmienić mapę: kliknij na zielony przycisk z czarnym krzyżykiem, aby powiększyć; na zielony przycisk z myślnikiem, aby pomniejszyć; na zielone strzałki, aby przejść do map sąsiednich.


METAR-TAF: